Skiathos, Hellas

03:04:EEST den 29. august 2016 (GMT +0300)
Skopelos Greece | | Change Station

H.o.h 259 ft 39.13 °N, 23.72 °E | Updated 2 seconds ago

Partly Cloudy
Delvis skyet
75.2 °F
Feels Like 78 °F
N
0.0
Vind Variabel Vind from Nord
Gusts 1.6 mph

I dag
High -- | Low -- °F
--% Chance of Precip.
I går
High -- | Low -- °F
Precip. -- tommer
Lufttrykk 29.98 tommer
Sikt 6.2 eng. mil
Skyet Few 4000 ft
Varmeindeks 78 °F
Duggpunkt 51 °F
Fuktighet 42%
Regn 0.00 tommer
Snødybde Not available.
6:52 AM 8:00 PM
Minkende sigd, 12% visible
METAR LGBL 282250Z 25005KT 9999 FEW040 21/11 Q1015 NOSIG BLU
Lufttrykk 29.98 tommer
Sikt 6.2 eng. mil
Skyet Few 4000 ft
Varmeindeks 78 °F
Duggpunkt 51 °F
Fuktighet 42%
Regn 0.00 tommer
Snødybde Not available.
6:52 AM 8:00 PM
Minkende sigd, 12% visible
METAR LGBL 282250Z 25005KT 9999 FEW040 21/11 Q1015 NOSIG BLU

10-Day Weather Forecast

×

Almanac

Astronomi

Aug. 29, 2016 Oppgang Nedgang
Virkelig tid
Tussmørke
Nautisk skumring
Astronomisk skumring
Månen
Lengde av synlig lys
Dagens lengde
Tomorrow will be .
, % of the Moon is Illuminated

Dagens maks og min

Country Highs Country Lows

Community

WunderPhotos

Upload Photos

1,935,726 photos uploaded!

WunderBlog® & News

Nearby

Luftkvalitet

  Luftkvalitet AQ Indeks Forurensing
Not available.

Snødybde

Stasjon Depth Høyde over havet

Earthquake Activity

By Distance Mag. Time & Date
Minimum magnitude displayed is 2.5.

Coastal Water Temperatures

Sted Temperatur

Stations

Nearby Weather Stations

Stasjonens lokasjon Temp. Nedkjølingseffekt Duggpunkt Fuktighet Vind Precip. H.o.h Oppdatert Type